createdAt,value
2023-05-16T00:01:18.241Z,19.70
2023-05-16T00:03:46.675Z,23.35
2023-05-16T00:06:15.521Z,19.23
2023-05-16T00:08:45.002Z,19.15
2023-05-16T00:11:13.367Z,23.13
2023-05-16T00:13:42.840Z,22.15
2023-05-16T00:16:14.597Z,24.98
2023-05-16T00:18:45.619Z,23.50
2023-05-16T00:21:14.516Z,22.58
2023-05-16T00:23:44.316Z,24.77
2023-05-16T00:26:12.781Z,22.73
2023-05-16T00:28:42.441Z,21.42
2023-05-16T00:31:11.355Z,23.80
2023-05-16T00:33:39.482Z,19.67
2023-05-16T00:36:08.539Z,20.17
2023-05-16T00:38:37.303Z,24.73
2023-05-16T00:41:07.559Z,22.08
2023-05-16T00:43:39.615Z,19.48
2023-05-16T00:46:08.314Z,22.20
2023-05-16T00:48:37.179Z,22.15
2023-05-16T00:51:09.331Z,12.93
2023-05-16T00:53:37.997Z,21.70
2023-05-16T00:56:08.556Z,24.52
2023-05-16T00:58:37.697Z,17.17
2023-05-16T01:01:08.217Z,20.23
2023-05-16T01:03:37.367Z,18.50
2023-05-16T01:06:07.828Z,20.23
2023-05-16T01:08:36.151Z,32.65
2023-05-16T01:11:13.733Z,22.25
2023-05-16T01:13:52.727Z,21.27
2023-05-16T01:16:27.639Z,17.15
2023-05-16T01:19:06.248Z,27.60
2023-05-16T01:21:45.173Z,19.43
2023-05-16T01:24:23.615Z,18.47
2023-05-16T01:26:55.181Z,15.57
2023-05-16T01:29:23.669Z,25.35
2023-05-16T01:31:52.132Z,19.35
2023-05-16T01:34:20.487Z,20.95
2023-05-16T01:36:55.985Z,17.07
2023-05-16T01:39:34.616Z,20.95
2023-05-16T01:42:07.001Z,20.77
2023-05-16T01:44:38.825Z,18.80
2023-05-16T01:47:12.986Z,16.25
2023-05-16T01:49:49.281Z,20.27
2023-05-16T01:52:23.654Z,15.65
2023-05-16T01:54:55.758Z,21.25
2023-05-16T01:57:28.190Z,16.25
2023-05-16T01:59:57.525Z,22.40
2023-05-16T02:02:26.066Z,21.50
2023-05-16T02:04:54.362Z,15.18
2023-05-16T02:07:23.420Z,22.73
2023-05-16T02:09:51.703Z,23.70
2023-05-16T02:12:20.507Z,17.23
2023-05-16T02:14:50.113Z,19.35
2023-05-16T02:17:19.655Z,20.77
2023-05-16T02:19:47.825Z,18.95
2023-05-16T02:22:16.739Z,17.95
2023-05-16T02:24:44.900Z,23.97
2023-05-16T02:27:14.122Z,18.48
2023-05-16T02:29:42.302Z,14.05
2023-05-16T02:32:12.355Z,18.98
2023-05-16T02:34:42.945Z,20.48
2023-05-16T02:37:13.311Z,15.60
2023-05-16T02:39:41.935Z,25.83
2023-05-16T02:42:11.911Z,19.07
2023-05-16T02:44:40.179Z,18.38
2023-05-16T02:47:09.082Z,18.85
2023-05-16T02:49:39.626Z,19.02
2023-05-16T02:52:08.675Z,17.23
2023-05-16T02:54:36.989Z,19.02
2023-05-16T02:57:06.086Z,16.70
2023-05-16T02:59:34.187Z,14.90
2023-05-16T03:02:03.730Z,19.00
2023-05-16T03:04:32.163Z,17.30
2023-05-16T03:07:02.018Z,22.37
2023-05-16T03:09:30.244Z,18.73
2023-05-16T03:11:59.554Z,15.32
2023-05-16T03:14:27.802Z,23.40
2023-05-16T03:16:56.436Z,15.10
2023-05-16T03:19:24.759Z,25.17
2023-05-16T03:21:53.245Z,26.63
2023-05-16T03:24:23.252Z,16.87
2023-05-16T03:26:52.135Z,13.55
2023-05-16T03:29:22.731Z,20.77
2023-05-16T03:31:51.223Z,20.83
2023-05-16T03:34:19.544Z,18.27
2023-05-16T03:36:49.736Z,15.53
2023-05-16T03:39:18.415Z,19.73
2023-05-16T03:41:48.573Z,13.40
2023-05-16T03:44:16.826Z,27.50
2023-05-16T03:46:45.812Z,17.27
2023-05-16T03:49:14.051Z,15.60
2023-05-16T03:51:42.633Z,19.20
2023-05-16T03:54:10.928Z,20.63
2023-05-16T03:56:39.447Z,26.23
2023-05-16T03:59:09.148Z,19.85
2023-05-16T04:01:37.794Z,17.70
2023-05-16T04:04:06.262Z,20.43
2023-05-16T04:06:35.861Z,16.17
2023-05-16T04:09:04.154Z,21.60
2023-05-16T04:11:34.148Z,21.10
2023-05-16T04:14:02.591Z,23.27
2023-05-16T04:16:32.719Z,24.03
2023-05-16T04:19:00.980Z,16.80
2023-05-16T04:21:29.664Z,17.33
2023-05-16T04:23:58.806Z,22.35
2023-05-16T04:26:27.536Z,21.17
2023-05-16T04:28:55.952Z,15.57
2023-05-16T04:31:24.649Z,27.93
2023-05-16T04:33:54.337Z,18.93
2023-05-16T04:36:23.431Z,16.70
2023-05-16T04:38:52.478Z,24.20
2023-05-16T04:41:21.866Z,16.70
2023-05-16T04:43:50.135Z,21.42
2023-05-16T04:46:19.185Z,21.87
2023-05-16T04:48:47.787Z,22.90
2023-05-16T04:51:18.102Z,22.50
2023-05-16T04:53:46.490Z,25.03
2023-05-16T04:56:15.042Z,23.30
2023-05-16T04:58:43.434Z,15.43
2023-05-16T05:01:12.141Z,23.03
2023-05-16T05:03:40.599Z,22.13
2023-05-16T05:06:09.209Z,12.40
2023-05-16T05:08:38.861Z,14.97
2023-05-16T05:11:07.620Z,18.45
2023-05-16T05:13:36.077Z,21.40
2023-05-16T05:16:06.071Z,20.00
2023-05-16T05:18:34.448Z,20.40
2023-05-16T05:21:02.990Z,20.90
2023-05-16T05:23:31.586Z,22.98
2023-05-16T05:26:02.213Z,27.80
2023-05-16T05:28:30.588Z,18.47
2023-05-16T05:30:59.575Z,14.67
2023-05-16T05:33:29.442Z,17.73
2023-05-16T05:35:58.312Z,21.13
2023-05-16T05:38:26.727Z,22.27
2023-05-16T05:40:55.521Z,24.35
2023-05-16T05:43:25.188Z,18.40
2023-05-16T05:45:53.984Z,20.55
2023-05-16T05:48:22.495Z,22.58
2023-05-16T05:50:51.210Z,16.67
2023-05-16T05:53:19.537Z,18.40
2023-05-16T05:55:48.017Z,34.60
2023-05-16T05:58:18.125Z,13.20
2023-05-16T06:00:48.128Z,18.20
2023-05-16T06:03:16.606Z,24.10
2023-05-16T06:05:45.598Z,16.38
2023-05-16T06:08:13.865Z,25.73
2023-05-16T06:10:42.817Z,19.85
2023-05-16T06:13:11.397Z,20.92
2023-05-16T06:15:39.967Z,23.40
2023-05-16T06:18:09.867Z,19.40
2023-05-16T06:20:38.748Z,17.40
2023-05-16T06:23:07.086Z,17.98
2023-05-16T06:25:35.531Z,28.10
2023-05-16T06:28:03.734Z,32.35
2023-05-16T06:30:32.680Z,17.83
2023-05-16T06:33:00.940Z,19.08
2023-05-16T06:35:30.777Z,21.15
2023-05-16T06:37:59.141Z,16.83
2023-05-16T06:40:28.201Z,14.30
2023-05-16T06:42:58.453Z,19.58
2023-05-16T06:45:27.208Z,14.27
2023-05-16T06:47:57.662Z,18.90
2023-05-16T06:50:26.476Z,15.85
2023-05-16T06:52:56.192Z,20.23
2023-05-16T06:55:25.022Z,16.70
2023-05-16T06:57:53.430Z,17.30
2023-05-16T07:00:22.887Z,19.75
2023-05-16T07:02:51.132Z,20.65
2023-05-16T07:05:20.109Z,20.67
2023-05-16T07:07:49.556Z,18.73
2023-05-16T07:10:19.512Z,18.23
2023-05-16T07:12:48.481Z,26.23
2023-05-16T07:15:16.972Z,17.83
2023-05-16T07:17:45.926Z,19.90
2023-05-16T07:20:14.826Z,22.90
2023-05-16T07:22:43.264Z,17.98
2023-05-16T07:25:12.935Z,16.88
2023-05-16T07:27:45.325Z,18.75
2023-05-16T07:30:15.408Z,20.23
2023-05-16T07:32:44.375Z,14.75
2023-05-16T07:35:13.254Z,20.25
2023-05-16T07:37:42.605Z,18.10
2023-05-16T07:40:12.148Z,21.10
2023-05-16T07:42:41.996Z,20.30
2023-05-16T07:45:11.189Z,23.15
2023-05-16T07:47:39.624Z,18.40
2023-05-16T07:50:09.022Z,22.70
2023-05-16T07:52:37.463Z,16.52
2023-05-16T07:55:06.826Z,11.88
2023-05-16T07:57:35.330Z,18.65
2023-05-16T08:00:06.289Z,18.40
2023-05-16T08:02:40.347Z,11.75
2023-05-16T08:05:10.543Z,18.80
2023-05-16T08:07:38.839Z,15.98
2023-05-16T08:10:08.374Z,15.52
2023-05-16T08:12:36.742Z,19.05
2023-05-16T08:15:07.967Z,17.83
2023-05-16T08:17:36.490Z,17.23
2023-05-16T08:20:05.927Z,17.02
2023-05-16T08:22:34.425Z,24.85
2023-05-16T08:25:03.167Z,16.90
2023-05-16T08:27:31.433Z,16.60
2023-05-16T08:30:00.291Z,14.82
2023-05-16T08:32:30.128Z,16.33
2023-05-16T08:34:58.822Z,16.75
2023-05-16T08:37:27.158Z,22.50
2023-05-16T08:39:56.011Z,15.15
2023-05-16T08:42:24.305Z,21.70
2023-05-16T08:44:52.752Z,27.02
2023-05-16T08:47:22.972Z,16.98
2023-05-16T08:49:57.050Z,18.35
2023-05-16T08:52:30.023Z,14.43
2023-05-16T08:55:10.073Z,20.67
2023-05-16T08:57:41.691Z,17.00
2023-05-16T09:00:13.203Z,19.52
2023-05-16T09:02:42.427Z,14.10
2023-05-16T09:05:14.211Z,25.52
2023-05-16T09:07:43.080Z,16.30
2023-05-16T09:10:13.327Z,21.40
2023-05-16T09:12:43.030Z,20.67
2023-05-16T09:15:12.563Z,13.07
2023-05-16T09:17:43.652Z,12.32
2023-05-16T09:20:16.507Z,12.32
2023-05-16T09:22:53.056Z,15.13
2023-05-16T09:25:30.142Z,17.80
2023-05-16T09:28:01.685Z,16.45
2023-05-16T09:30:31.909Z,16.17
2023-05-16T09:33:00.713Z,15.88
2023-05-16T09:35:44.159Z,15.93
2023-05-16T09:38:17.878Z,15.07
2023-05-16T09:40:47.304Z,16.67
2023-05-16T09:43:18.078Z,14.05
2023-05-16T09:45:49.010Z,13.55
2023-05-16T09:48:18.791Z,20.80
2023-05-16T09:50:54.085Z,15.90
2023-05-16T09:53:29.132Z,19.45
2023-05-16T09:56:06.694Z,20.50
2023-05-16T09:58:36.765Z,14.50
2023-05-16T10:01:06.362Z,13.75
2023-05-16T10:03:36.264Z,17.60
2023-05-16T10:06:07.494Z,20.73
2023-05-16T10:08:37.689Z,12.88
2023-05-16T10:11:07.741Z,16.90
2023-05-16T10:13:37.744Z,16.60
2023-05-16T10:16:09.328Z,16.15
2023-05-16T10:18:39.452Z,19.40
2023-05-16T10:21:14.251Z,12.02
2023-05-16T10:23:44.166Z,14.35
2023-05-16T10:26:14.592Z,12.85
2023-05-16T10:28:44.025Z,13.98
2023-05-16T10:31:13.044Z,16.98
2023-05-16T10:33:41.844Z,19.73
2023-05-16T10:36:12.944Z,12.88
2023-05-16T10:38:42.233Z,18.02
2023-05-16T10:41:12.115Z,22.38
2023-05-16T10:43:42.449Z,19.48
2023-05-16T10:46:14.153Z,15.88
2023-05-16T10:48:43.574Z,14.55
2023-05-16T10:51:38.300Z,17.15
2023-05-16T10:54:08.936Z,13.93
2023-05-16T10:56:37.845Z,17.00
2023-05-16T10:59:06.252Z,21.02
2023-05-16T11:01:35.717Z,17.98
2023-05-16T11:04:11.798Z,14.15
2023-05-16T11:06:52.111Z,14.82
2023-05-16T11:09:27.228Z,15.45
2023-05-16T11:12:01.005Z,18.45
2023-05-16T11:14:32.257Z,16.10
2023-05-16T11:17:08.434Z,16.50
2023-05-16T11:19:44.434Z,17.33
2023-05-16T11:22:28.220Z,18.83
2023-05-16T11:24:58.876Z,19.23
2023-05-16T11:27:31.161Z,16.55
2023-05-16T11:30:12.852Z,17.05
2023-05-16T11:32:43.268Z,17.80
2023-05-16T11:35:15.091Z,14.13
2023-05-16T11:37:46.926Z,19.20
2023-05-16T11:40:17.314Z,18.13
2023-05-16T11:42:49.330Z,17.45
2023-05-16T11:45:19.326Z,19.33
2023-05-16T11:47:49.519Z,18.85
2023-05-16T11:50:19.641Z,16.88
2023-05-16T11:52:53.720Z,17.40
2023-05-16T11:55:36.928Z,14.93
2023-05-16T11:58:09.889Z,20.77
2023-05-16T12:00:38.319Z,13.50
2023-05-16T12:03:08.231Z,14.45
2023-05-16T12:05:36.839Z,16.40
2023-05-16T12:08:07.208Z,13.23
2023-05-16T12:10:35.684Z,16.63
2023-05-16T12:13:04.828Z,20.55
2023-05-16T12:15:34.155Z,16.90
2023-05-16T12:18:03.350Z,13.80
2023-05-16T12:20:32.132Z,18.25
2023-05-16T12:23:01.092Z,15.85
2023-05-16T12:25:32.802Z,15.10
2023-05-16T12:28:03.419Z,19.85
2023-05-16T12:30:33.774Z,14.02
2023-05-16T12:33:07.949Z,15.32
2023-05-16T12:35:38.953Z,21.17
2023-05-16T12:38:08.589Z,17.73
2023-05-16T12:40:40.540Z,19.45
2023-05-16T12:43:15.474Z,15.80
2023-05-16T12:45:50.489Z,17.35
2023-05-16T12:48:19.350Z,20.00
2023-05-16T12:50:48.711Z,15.65
2023-05-16T12:53:18.735Z,18.50
2023-05-16T12:55:48.551Z,20.00
2023-05-16T12:58:18.380Z,11.95
2023-05-16T13:00:46.767Z,20.65
2023-05-16T13:03:15.570Z,19.00
2023-05-16T13:05:44.550Z,16.05
2023-05-16T13:08:13.511Z,19.70
2023-05-16T13:10:41.813Z,22.83
2023-05-16T13:13:13.697Z,19.33
2023-05-16T13:15:45.726Z,14.63
2023-05-16T13:18:14.575Z,23.42
2023-05-16T13:20:43.592Z,16.55
2023-05-16T13:23:12.223Z,16.55
2023-05-16T13:25:40.543Z,25.83
2023-05-16T13:28:09.117Z,20.80
2023-05-16T13:30:38.727Z,24.25
2023-05-16T13:33:07.525Z,21.88
2023-05-16T13:35:36.235Z,20.58
2023-05-16T13:38:05.149Z,24.67
2023-05-16T13:40:33.457Z,19.52
2023-05-16T13:43:02.363Z,19.63
2023-05-16T13:45:31.464Z,16.90
2023-05-16T13:48:01.701Z,17.63
2023-05-16T13:50:33.676Z,27.73
2023-05-16T13:53:02.954Z,22.92
2023-05-16T13:55:31.574Z,20.05
2023-05-16T13:58:00.163Z,21.92
2023-05-16T14:00:43.258Z,27.27
2023-05-16T14:03:15.060Z,26.98
2023-05-16T14:05:43.549Z,22.98
2023-05-16T14:08:12.133Z,31.80
2023-05-16T14:10:40.717Z,27.58
2023-05-16T14:13:09.458Z,27.13
2023-05-16T14:15:37.791Z,23.92
2023-05-16T14:18:07.557Z,33.05
2023-05-16T14:20:37.216Z,30.52
2023-05-16T14:23:06.022Z,28.58
2023-05-16T14:25:34.305Z,30.75
2023-05-16T14:28:03.207Z,26.83
2023-05-16T14:30:31.612Z,28.17
2023-05-16T14:33:01.262Z,29.38
2023-05-16T14:35:30.253Z,29.40
2023-05-16T14:38:00.236Z,25.58
2023-05-16T14:40:28.529Z,24.88
2023-05-16T14:42:57.754Z,34.17
2023-05-16T14:45:26.398Z,27.88
2023-05-16T14:47:55.599Z,28.42
2023-05-16T14:50:24.039Z,21.40
2023-05-16T14:52:53.615Z,28.92
2023-05-16T14:55:23.893Z,26.10
2023-05-16T14:57:59.289Z,26.38
2023-05-16T15:00:28.453Z,26.02
2023-05-16T15:02:57.728Z,21.85
2023-05-16T15:05:26.325Z,21.70
2023-05-16T15:07:55.137Z,13.85
2023-05-16T15:10:25.461Z,16.50
2023-05-16T15:12:54.318Z,17.33
2023-05-16T15:15:22.698Z,20.67
2023-05-16T15:17:51.359Z,26.67
2023-05-16T15:20:21.925Z,36.08
2023-05-16T15:22:51.413Z,21.33
2023-05-16T15:25:20.009Z,17.00
2023-05-16T15:27:50.034Z,24.33
2023-05-16T15:30:18.411Z,19.38
2023-05-16T15:32:46.953Z,24.45
2023-05-16T15:35:15.488Z,25.00
2023-05-16T15:37:44.629Z,26.52
2023-05-16T15:40:13.962Z,30.73
2023-05-16T15:42:44.295Z,34.72
2023-05-16T15:45:14.377Z,30.30
2023-05-16T15:47:43.028Z,24.52
2023-05-16T15:50:12.533Z,26.92
2023-05-16T15:52:44.354Z,26.52
2023-05-16T15:55:13.082Z,32.67
2023-05-16T15:57:43.812Z,27.10
2023-05-16T16:00:14.809Z,27.67
2023-05-16T16:02:45.383Z,30.05
2023-05-16T16:05:13.877Z,27.10
2023-05-16T16:07:42.925Z,27.50
2023-05-16T16:10:14.708Z,26.25
2023-05-16T16:12:43.434Z,31.27
2023-05-16T16:15:13.504Z,37.30
2023-05-16T16:17:42.130Z,29.73
2023-05-16T16:20:11.414Z,28.48
2023-05-16T16:22:39.895Z,33.92
2023-05-16T16:25:08.955Z,27.95
2023-05-16T16:27:37.460Z,29.85
2023-05-16T16:30:06.559Z,35.85
2023-05-16T16:32:36.804Z,30.85
2023-05-16T16:35:06.097Z,32.78
2023-05-16T16:37:35.369Z,36.72
2023-05-16T16:40:04.887Z,37.08
2023-05-16T16:42:33.490Z,27.55
2023-05-16T16:45:02.160Z,32.25
2023-05-16T16:47:32.355Z,34.00
2023-05-16T16:50:02.328Z,35.45
2023-05-16T16:52:31.011Z,35.15
2023-05-16T16:54:59.324Z,39.25
2023-05-16T16:57:28.172Z,28.17
2023-05-16T16:59:59.402Z,39.65
2023-05-16T17:02:28.097Z,45.90
2023-05-16T17:04:56.488Z,39.42
2023-05-16T17:07:26.318Z,40.95
2023-05-16T17:09:56.203Z,40.47
2023-05-16T17:12:28.337Z,48.40
2023-05-16T17:14:57.265Z,34.38
2023-05-16T17:17:27.000Z,40.50
2023-05-16T17:19:55.426Z,37.17
2023-05-16T17:22:24.116Z,37.38
2023-05-16T17:24:56.688Z,41.72
2023-05-16T17:27:25.285Z,43.60
2023-05-16T17:29:53.684Z,39.10
2023-05-16T17:32:22.307Z,42.08
2023-05-16T17:34:51.246Z,31.27
2023-05-16T17:37:20.013Z,34.25
2023-05-16T17:39:48.382Z,39.22
2023-05-16T17:42:18.704Z,31.05
2023-05-16T17:44:47.453Z,35.38
2023-05-16T17:47:16.600Z,33.70
2023-05-16T17:49:46.037Z,45.30
2023-05-16T17:52:15.625Z,36.38
2023-05-16T17:54:44.036Z,34.17
2023-05-16T17:57:13.230Z,40.38
2023-05-16T17:59:42.751Z,30.88
2023-05-16T18:02:15.184Z,48.45
2023-05-16T18:04:43.846Z,31.70
2023-05-16T18:09:55.770Z,33.13
2023-05-16T18:12:24.582Z,35.17
2023-05-16T18:14:53.132Z,25.13
2023-05-16T18:17:21.827Z,27.55
2023-05-16T18:19:50.455Z,25.42
2023-05-16T18:22:19.237Z,22.48
2023-05-16T18:24:47.564Z,29.02
2023-05-16T18:27:17.652Z,23.98
2023-05-16T18:29:46.054Z,35.15
2023-05-16T18:32:16.997Z,30.38
2023-05-16T18:34:45.362Z,24.25
2023-05-16T18:37:14.554Z,27.95
2023-05-16T18:39:43.722Z,41.47
2023-05-16T18:42:12.817Z,34.72
2023-05-16T18:44:42.702Z,27.30
2023-05-16T18:47:11.587Z,28.30
2023-05-16T18:49:40.136Z,26.80
2023-05-16T18:52:09.695Z,28.83
2023-05-16T18:54:39.656Z,34.63
2023-05-16T18:57:09.035Z,28.20
2023-05-16T18:59:37.629Z,27.35
2023-05-16T19:02:07.904Z,20.92
2023-05-16T19:04:36.746Z,23.20
2023-05-16T19:07:07.837Z,27.80
2023-05-16T19:09:37.367Z,23.13
2023-05-16T19:12:06.942Z,23.95
2023-05-16T19:14:37.716Z,23.92
2023-05-16T19:17:07.823Z,29.38
2023-05-16T19:19:36.494Z,27.65
2023-05-16T19:22:06.145Z,23.85
2023-05-16T19:24:34.604Z,21.30
2023-05-16T19:27:04.147Z,24.77
2023-05-16T19:29:32.714Z,20.75
2023-05-16T19:32:02.192Z,26.05
2023-05-16T19:34:32.083Z,31.77
2023-05-16T19:37:02.303Z,19.83
2023-05-16T19:39:32.835Z,23.33
2023-05-16T19:42:07.114Z,27.45
2023-05-16T19:44:36.779Z,30.95
2023-05-16T19:47:05.881Z,24.92
2023-05-16T19:49:35.740Z,25.45
2023-05-16T19:52:08.182Z,25.20
2023-05-16T19:54:36.583Z,24.35
2023-05-16T19:57:05.769Z,28.73
2023-05-16T19:59:34.197Z,18.73
2023-05-16T20:02:04.289Z,22.77
2023-05-16T20:04:33.046Z,20.70
2023-05-16T20:07:02.997Z,17.92
2023-05-16T20:09:31.383Z,18.52
2023-05-16T20:12:00.209Z,22.05
2023-05-16T20:14:29.470Z,20.40
2023-05-16T20:16:58.632Z,22.25
2023-05-16T20:19:27.379Z,37.38
2023-05-16T20:21:56.463Z,20.83
2023-05-16T20:24:26.224Z,21.70
2023-05-16T20:26:54.957Z,24.05
2023-05-16T20:29:23.475Z,27.88
2023-05-16T20:31:52.337Z,27.20
2023-05-16T20:34:20.591Z,26.95
2023-05-16T20:36:49.236Z,29.73
2023-05-16T20:39:17.584Z,28.38
2023-05-16T20:41:47.638Z,20.83
2023-05-16T20:44:16.567Z,28.83
2023-05-16T20:46:46.490Z,24.52
2023-05-16T20:49:14.901Z,23.05
2023-05-16T20:51:43.650Z,21.05
2023-05-16T20:54:12.888Z,21.38
2023-05-16T20:56:41.691Z,28.38
2023-05-16T20:59:11.527Z,24.35
2023-05-16T21:01:40.466Z,26.48
2023-05-16T21:04:08.737Z,23.48
2023-05-16T21:06:37.508Z,22.40
2023-05-16T21:09:06.007Z,25.55
2023-05-16T21:11:34.749Z,26.83
2023-05-16T21:14:03.465Z,24.70
2023-05-16T21:16:33.992Z,26.20
2023-05-16T21:19:04.294Z,26.48
2023-05-16T21:21:32.960Z,22.88
2023-05-16T21:24:01.323Z,28.45
2023-05-16T21:26:30.079Z,29.63
2023-05-16T21:28:58.419Z,22.95
2023-05-16T21:31:27.222Z,26.38
2023-05-16T21:33:56.902Z,22.52
2023-05-16T21:36:25.488Z,22.25
2023-05-16T21:38:53.869Z,22.58
2023-05-16T21:41:23.205Z,19.10
2023-05-16T21:43:51.545Z,26.25
2023-05-16T21:46:20.996Z,18.48
2023-05-16T21:48:49.537Z,22.40
2023-05-16T21:51:19.809Z,25.10
2023-05-16T21:53:48.026Z,23.90
2023-05-16T21:56:17.784Z,24.27
2023-05-16T21:58:46.361Z,22.73
2023-05-16T22:01:14.984Z,20.25
2023-05-16T22:03:43.569Z,20.98
2023-05-16T22:06:12.117Z,22.52
2023-05-16T22:08:42.094Z,21.48
2023-05-16T22:11:10.768Z,25.63
2023-05-16T22:13:38.989Z,22.13
2023-05-16T22:16:08.089Z,22.58
2023-05-16T22:18:36.551Z,22.70
2023-05-16T22:21:06.259Z,24.65
2023-05-16T22:23:34.547Z,23.60
2023-05-16T22:26:04.736Z,21.60
2023-05-16T22:28:33.049Z,22.45
2023-05-16T22:31:01.587Z,21.33
2023-05-16T22:33:30.174Z,20.25
2023-05-16T22:36:01.177Z,23.52
2023-05-16T22:38:29.526Z,21.63
2023-05-16T22:40:58.283Z,19.60
2023-05-16T22:43:27.911Z,24.67
2023-05-16T22:45:56.915Z,18.75
2023-05-16T22:48:25.395Z,25.25
2023-05-16T22:50:53.971Z,26.92
2023-05-16T22:53:22.325Z,23.80
2023-05-16T22:55:51.024Z,24.60
2023-05-16T22:58:19.325Z,29.25
2023-05-16T23:00:49.814Z,23.33
2023-05-16T23:03:18.189Z,20.73
2023-05-16T23:05:46.973Z,26.60
2023-05-16T23:08:15.266Z,23.90
2023-05-16T23:10:43.962Z,23.65
2023-05-16T23:13:12.518Z,20.48
2023-05-16T23:15:41.273Z,27.95
2023-05-16T23:18:11.552Z,19.77
2023-05-16T23:20:40.331Z,20.13
2023-05-16T23:23:08.633Z,22.55
2023-05-16T23:25:37.361Z,19.55
2023-05-16T23:28:05.941Z,19.35
2023-05-16T23:30:34.473Z,24.13
2023-05-16T23:33:02.943Z,23.77
2023-05-16T23:35:32.970Z,19.13
2023-05-16T23:38:01.419Z,26.65
2023-05-16T23:40:30.056Z,19.88
2023-05-16T23:42:58.418Z,19.88
2023-05-16T23:45:27.984Z,19.83
2023-05-16T23:47:56.557Z,19.85
2023-05-16T23:50:25.221Z,19.52
2023-05-16T23:52:55.112Z,21.55
2023-05-16T23:55:24.281Z,18.95
2023-05-16T23:57:52.630Z,22.45
